Angostura, New Mexico
Current Conditions -  °F | °C
As of 4:15 PM on Wednesday 22 Oct 2014 (Local Time) from KSKX Reporting Station
Few Clouds Few Clouds  
Wind Chill: 66°   Ceiling: Unl
Heat Index: 66°   Visibility: 10mi
Dew Point: 28°   Wind: 10mph
Humidity: 24%   Direction: 240°WSW
Pressure: 30.2"   Gusts: NA
Location:  36.1892°N, 105.688°W
Report Text: KSKX 222215Z AUTO 24009KT 230V300 10SM FEW080 19/M02 A3020 RMK AO1
Loading
Personal Weather Stations






























Interactive Weather Map
Tropical Storm Tracking
New forecast layout! Learn more

10-Day Weather Forecast

Advertisements
Track Severe Weather on mobile